Hoosier, Illinois
Current Conditions -  °F | °C
As of 3:35 PM on Friday 28 Nov 2014 (Local Time) from KFOA Reporting Station
Clear Clear  
Wind Chill: 34°   Ceiling: Unl
Heat Index: 42°   Visibility: 10mi
Dew Point: 32°   Wind: 16mph
Humidity: 67%   Direction: 170°S
Pressure: 30.06"   Gusts: NA
Location:  38.8267°N, 88.5024°W
Report Text: KFOA 282135Z AUTO 17014KT 10SM CLR 06/00 A3006 RMK AO2 T00560000
Loading
Personal Weather Stations






























Interactive Weather Map New forecast layout! Learn more

10-Day Weather Forecast

Advertisements
Track Severe Weather on mobile